Time;durP1;ratioP1;P1;durP2;ratioP2;P2;SDS_P1;SDS_P2;PMS_P1;PMS_P2;Temp;Humidity;BMP_temperature;BMP_pressure;BME280_temperature;BME280_humidity;BME280_pressure;Samples;Min_cycle;Max_cycle;Signal;HPM_P1;HPM_P2
2022/07/13 06:56:03;;;;;;;2.28;2.17;;;23.40;99.90;;;;;;5090872;27;20532;-73
2022/07/13 06:58:29;;;;;;;2.55;2.10;;;23.40;99.90;;;;;;5090894;28;20163;-73
2022/07/13 07:00:54;;;;;;;2.28;2.17;;;23.40;99.90;;;;;;5090728;28;20163;-73
2022/07/13 07:03:20;;;;;;;3.47;2.05;;;23.40;99.90;;;;;;5090744;28;20160;-73
2022/07/13 07:05:46;;;;;;;3.25;1.83;;;23.30;99.90;;;;;;5090647;28;20176;-73
2022/07/13 07:08:13;;;;;;;2.90;2.15;;;23.20;99.90;;;;;;5090401;28;20173;-71
2022/07/13 07:10:39;;;;;;;1.88;1.77;;;23.20;99.90;;;;;;5090561;28;20183;-69
2022/07/13 07:13:05;;;;;;;2.20;2.00;;;23.20;99.90;;;;;;5090424;28;20229;-66
2022/07/13 07:15:31;;;;;;;2.38;2.20;;;23.30;99.90;;;;;;5090356;28;20191;-65
2022/07/13 07:17:57;;;;;;;3.97;2.10;;;23.40;99.90;;;;;;5090420;28;20686;-70
2022/07/13 07:20:23;;;;;;;2.17;1.88;;;23.50;99.90;;;;;;5090348;28;20187;-74
2022/07/13 07:22:49;;;;;;;2.10;2.00;;;23.60;99.90;;;;;;5090346;28;20523;-75
2022/07/13 07:25:15;;;;;;;2.08;1.98;;;23.70;99.90;;;;;;5090264;28;20175;-75
2022/07/13 07:27:41;;;;;;;2.22;2.13;;;23.70;99.90;;;;;;5090278;28;20202;-74
2022/07/13 07:30:08;;;;;;;2.80;1.95;;;23.70;99.90;;;;;;5090194;28;20164;-71
2022/07/13 07:32:33;;;;;;;2.35;2.25;;;23.70;99.90;;;;;;5090131;28;20171;-72
2022/07/13 07:34:59;;;;;;;2.53;2.30;;;23.70;99.90;;;;;;5090015;28;20202;-73
2022/07/13 07:37:25;;;;;;;2.20;2.10;;;23.90;99.90;;;;;;5090012;28;20171;-73
2022/07/13 07:39:51;;;;;;;2.10;2.00;;;24.10;99.90;;;;;;5090019;28;20167;-74
2022/07/13 07:42:17;;;;;;;2.13;2.03;;;24.30;99.90;;;;;;5089991;28;20576;-74
2022/07/13 07:44:42;;;;;;;2.53;1.92;;;24.50;99.90;;;;;;5088565;28;20271;-75
2022/07/13 07:47:08;;;;;;;2.75;1.83;;;24.50;99.90;;;;;;5089878;28;20250;-74
2022/07/13 07:49:34;;;;;;;2.40;2.13;;;24.60;99.90;;;;;;5089894;28;20217;-74
2022/07/13 07:52:00;;;;;;;3.80;2.08;;;24.60;99.90;;;;;;5089750;28;20187;-74
2022/07/13 07:54:25;;;;;;;2.67;2.00;;;24.50;99.90;;;;;;5089454;28;20668;-72
2022/07/13 07:56:51;;;;;;;3.85;2.35;;;24.50;99.90;;;;;;5089690;28;20168;-74
2022/07/13 07:59:17;;;;;;;2.85;1.90;;;24.50;99.90;;;;;;5089596;28;20170;-73
2022/07/13 08:01:43;;;;;;;2.20;2.10;;;24.50;99.90;;;;;;5089618;28;20159;-73
2022/07/13 08:04:08;;;;;;;1.65;1.60;;;24.50;99.90;;;;;;5089536;28;20167;-72
2022/07/13 08:06:34;;;;;;;4.03;2.17;;;24.50;99.90;;;;;;5080840;28;20216;-72
2022/07/13 08:09:00;;;;;;;2.40;1.88;;;24.60;99.90;;;;;;5076085;28;20598;-72
2022/07/13 08:11:26;;;;;;;6.13;2.67;;;24.70;99.90;;;;;;5076036;28;20191;-72
2022/07/13 08:13:52;;;;;;;5.00;2.22;;;24.80;99.90;;;;;;5075857;28;20179;-72
2022/07/13 08:16:18;;;;;;;1.80;1.70;;;24.90;99.90;;;;;;5075896;28;20179;-72
2022/07/13 08:18:45;;;;;;;4.32;2.17;;;25.00;99.90;;;;;;5075875;28;20190;-72
2022/07/13 08:21:10;;;;;;;1.98;1.80;;;25.00;99.90;;;;;;5074557;28;20661;-73
2022/07/13 08:23:52;;;;;;;2.08;1.90;;;25.00;99.90;;;;;;5075808;28;20172;-73
2022/07/13 08:26:21;;;;;;;2.50;2.30;;;25.00;99.90;;;;;;5075714;28;20163;-72
2022/07/13 08:28:47;;;;;;;2.25;2.15;;;25.00;99.90;;;;;;5075571;28;20631;-75
2022/07/13 08:31:13;;;;;;;2.40;2.15;;;25.10;99.90;;;;;;5075729;28;20159;-75
2022/07/13 08:39:08;;;;;;;6.18;2.03;;;25.20;99.90;;;;;;5075583;28;20647;-72
2022/07/13 08:41:34;;;;;;;6.85;2.22;;;25.10;99.90;;;;;;5075455;28;20160;-72
2022/07/13 08:44:00;;;;;;;2.20;2.10;;;25.10;99.90;;;;;;5075301;28;20174;-72
2022/07/13 08:46:26;;;;;;;2.15;2.03;;;25.10;99.90;;;;;;5075259;28;20556;-73
2022/07/13 08:48:55;;;;;;;10.75;2.47;;;25.10;99.90;;;;;;5075272;28;20171;-72
2022/07/13 08:51:21;;;;;;;2.22;1.90;;;25.10;99.90;;;;;;5075165;28;20503;-72
2022/07/13 08:53:48;;;;;;;2.10;2.00;;;25.20;99.90;;;;;;5075048;28;20176;-73
2022/07/13 08:56:14;;;;;;;2.83;1.80;;;25.20;99.90;;;;;;5073833;28;20682;-73
2022/07/13 08:58:40;;;;;;;3.58;1.88;;;25.20;99.90;;;;;;5075110;28;20222;-72
2022/07/13 09:01:08;;;;;;;3.42;2.28;;;25.10;99.90;;;;;;5075068;28;20183;-70
2022/07/13 09:03:34;;;;;;;3.97;2.00;;;25.10;99.90;;;;;;5074923;28;20258;-75
2022/07/13 09:06:00;;;;;;;3.55;2.10;;;25.20;99.90;;;;;;5073678;28;20175;-74
2022/07/13 09:08:26;;;;;;;2.13;2.03;;;25.40;99.90;;;;;;5074871;28;20671;-74
2022/07/13 09:10:59;;;;;;;2.05;1.95;;;25.60;99.90;;;;;;5074795;28;20202;-74
2022/07/13 09:13:34;;;;;;;6.57;2.53;;;25.60;99.90;;;;;;5074846;28;20160;-74
2022/07/13 09:16:19;;;;;;;16.10;2.38;;;25.60;99.90;;;;;;5073463;28;20199;-74
2022/07/13 09:18:56;;;;;;;9.15;2.15;;;25.60;99.90;;;;;;5072409;28;20171;-74
2022/07/13 09:21:23;;;;;;;7.70;3.05;;;25.60;99.90;;;;;;5074654;28;20217;-75
2022/07/13 09:23:54;;;;;;;5.22;2.47;;;25.60;99.90;;;;;;5074606;28;20163;-74
2022/07/13 09:26:21;;;;;;;6.03;2.72;;;25.50;99.90;;;;;;5074518;28;20301;-75
2022/07/13 09:28:49;;;;;;;2.25;2.15;;;25.40;99.90;;;;;;5073116;28;20175;-73
2022/07/13 09:31:16;;;;;;;4.97;2.00;;;25.30;99.90;;;;;;5074524;28;20520;-73
2022/07/13 09:33:43;;;;;;;5.35;2.20;;;25.30;99.90;;;;;;5074299;28;20171;-74
2022/07/13 09:36:12;;;;;;;3.22;2.30;;;25.30;99.90;;;;;;5074385;28;20164;-74
2022/07/13 09:38:45;;;;;;;3.15;2.10;;;25.50;99.90;;;;;;5074336;28;20217;-75
2022/07/13 09:41:26;;;;;;;2.05;1.95;;;25.60;99.90;;;;;;5074235;28;20626;-76
2022/07/13 09:47:06;;;;;;;2.00;1.90;;;25.80;99.90;;;;;;5074150;28;20203;-73
2022/07/13 09:49:31;;;;;;;4.20;2.58;;;25.80;99.90;;;;;;5074038;28;20245;-73
2022/07/13 09:51:58;;;;;;;2.85;2.10;;;25.90;99.90;;;;;;5074013;28;20599;-71
2022/07/13 09:54:27;;;;;;;2.97;2.35;;;26.10;99.90;;;;;;5073773;28;20711;-73
2022/07/13 09:56:57;;;;;;;8.95;2.50;;;26.10;99.90;;;;;;5074015;28;20164;-73
2022/07/13 09:59:24;;;;;;;2.20;1.98;;;26.10;99.90;;;;;;5073948;28;20194;-75
2022/07/13 10:01:50;;;;;;;4.50;2.10;;;26.20;99.90;;;;;;5072593;28;20273;-74
2022/07/13 10:04:17;;;;;;;3.88;2.08;;;26.20;99.90;;;;;;5073765;28;20437;-74
2022/07/13 10:06:43;;;;;;;2.83;2.15;;;26.40;99.90;;;;;;5073854;28;20577;-74
2022/07/13 10:09:09;;;;;;;5.88;2.10;;;26.40;99.90;;;;;;5073817;28;20199;-72
2022/07/13 10:11:34;;;;;;;3.85;2.00;;;26.30;99.90;;;;;;5073614;28;20258;-72
2022/07/13 10:14:00;;;;;;;7.60;2.35;;;26.20;99.90;;;;;;5073584;28;20178;-71
2022/07/13 10:16:30;;;;;;;2.10;2.00;;;26.20;99.90;;;;;;5072347;28;20171;-77
2022/07/13 10:19:03;;;;;;;2.97;2.20;;;26.20;99.90;;;;;;5073610;28;20176;-77
2022/07/13 10:22:04;;;;;;;2.20;2.10;;;26.30;99.90;;;;;;5073642;28;20217;-77
2022/07/13 10:24:30;;;;;;;2.45;1.92;;;26.40;99.90;;;;;;5073547;28;20720;-78
2022/07/13 10:27:18;;;;;;;2.50;2.40;;;26.40;99.90;;;;;;5073492;28;20247;-74
2022/07/13 10:29:53;;;;;;;2.75;2.20;;;26.30;99.90;;;;;;5073294;28;20172;-72
2022/07/13 10:32:25;;;;;;;2.15;2.03;;;26.20;99.90;;;;;;5073512;28;20174;-70
2022/07/13 10:35:17;;;;;;;7.28;2.08;;;26.20;99.90;;;;;;5074335;28;20183;-69
2022/07/13 10:38:00;;;;;;;4.00;2.03;;;26.10;99.90;;;;;;5073410;28;20621;-71
2022/07/13 10:40:31;;;;;;;3.13;2.40;;;26.20;99.90;;;;;;5073414;28;20175;-71
2022/07/13 10:43:05;;;;;;;10.00;2.80;;;26.40;99.90;;;;;;5072152;28;20168;-70
2022/07/13 10:45:34;;;;;;;3.00;1.95;;;26.50;99.90;;;;;;5073366;28;20250;-70
2022/07/13 10:48:02;;;;;;;2.10;2.00;;;26.60;99.90;;;;;;5073230;28;20171;-70
2022/07/13 10:50:34;;;;;;;6.22;2.28;;;26.80;99.90;;;;;;5073216;28;20501;-71
2022/07/13 10:53:00;;;;;;;2.22;2.13;;;26.80;99.90;;;;;;5073318;28;20160;-71
2022/07/13 10:55:31;;;;;;;2.75;1.85;;;26.80;99.90;;;;;;5073076;28;20235;-71
2022/07/13 10:57:57;;;;;;;2.80;2.22;;;26.80;99.90;;;;;;5071913;28;20183;-70
2022/07/13 11:00:37;;;;;;;6.60;2.17;;;26.60;99.90;;;;;;5073096;28;20164;-70
2022/07/13 11:03:06;;;;;;;2.75;1.90;;;26.60;99.90;;;;;;5073152;28;20195;-71
2022/07/13 11:05:35;;;;;;;6.35;1.98;;;26.50;99.90;;;;;;5073086;28;20172;-75
2022/07/13 11:08:12;;;;;;;2.75;2.10;;;26.50;99.90;;;;;;5073071;28;20167;-75
2022/07/13 11:10:37;;;;;;;5.30;2.05;;;26.60;99.90;;;;;;5073034;28;20188;-74
2022/07/13 11:13:13;;;;;;;2.00;1.90;;;26.70;99.90;;;;;;5072994;28;20175;-74
2022/07/13 11:15:47;;;;;;;7.65;2.47;;;26.80;99.90;;;;;;5071697;28;20206;-74
2022/07/13 11:18:24;;;;;;;9.88;2.22;;;27.00;99.90;;;;;;5072935;28;20168;-74
2022/07/13 11:21:17;;;;;;;3.53;2.03;;;27.30;99.90;;;;;;5072951;28;20633;-74
2022/07/13 11:26:42;;;;;;;5.28;2.20;;;27.10;99.90;;;;;;5072991;28;20237;-74
2022/07/13 11:29:17;;;;;;;16.92;2.33;;;27.10;99.90;;;;;;5072924;28;20163;-74
2022/07/13 11:31:43;;;;;;;10.65;2.38;;;27.10;99.90;;;;;;5071511;28;20167;-73
2022/07/13 11:34:09;;;;;;;6.75;2.40;;;27.10;99.90;;;;;;5072761;28;20191;-73
2022/07/13 11:36:35;;;;;;;2.40;2.20;;;27.20;99.90;;;;;;5072804;28;20171;-74
2022/07/13 11:39:01;;;;;;;3.75;1.77;;;27.30;99.90;;;;;;5072839;28;20168;-73
2022/07/13 11:41:27;;;;;;;1.80;1.70;;;27.20;99.90;;;;;;5074153;28;20164;-71
2022/07/13 11:43:53;;;;;;;4.28;1.95;;;27.10;99.90;;;;;;5076584;28;20164;-73
2022/07/13 11:46:28;;;;;;;2.03;1.67;;;26.90;99.90;;;;;;5076339;28;20160;-72
2022/07/13 11:49:04;;;;;;;3.00;1.63;;;26.90;99.90;;;;;;5076418;28;20217;-69
2022/07/13 11:51:31;;;;;;;5.22;2.10;;;27.00;99.90;;;;;;5076394;28;20160;-70
2022/07/13 11:54:09;;;;;;;6.13;2.88;;;27.30;99.90;;;;;;5076075;28;20579;-69
2022/07/13 11:56:35;;;;;;;2.03;1.92;;;27.50;99.90;;;;;;5076193;28;20168;-69
2022/07/13 11:59:01;;;;;;;1.90;1.80;;;27.70;99.90;;;;;;5074949;28;20172;-69
2022/07/13 12:01:28;;;;;;;1.50;1.40;;;27.80;99.90;;;;;;5076206;28;20247;-69
2022/07/13 12:03:54;;;;;;;1.42;1.33;;;27.80;99.90;;;;;;5076084;28;20160;-70
2022/07/13 12:06:26;;;;;;;4.82;1.90;;;27.80;99.90;;;;;;5076022;28;20213;-70
2022/07/13 12:08:52;;;;;;;4.60;1.60;;;27.70;99.90;;;;;;5076031;28;20164;-72
2022/07/13 12:11:18;;;;;;;1.83;1.60;;;27.60;99.90;;;;;;5074588;28;20190;-72
2022/07/13 12:13:45;;;;;;;2.10;1.58;;;27.60;99.90;;;;;;5075958;28;20163;-72
2022/07/13 12:16:13;;;;;;;1.92;1.55;;;27.60;99.90;;;;;;5075854;28;20218;-72
2022/07/13 12:18:57;;;;;;;2.15;1.45;;;27.80;99.90;;;;;;5075989;28;20213;-71
2022/07/13 12:21:23;;;;;;;5.03;1.40;;;27.70;99.90;;;;;;5074497;28;20167;-71
2022/07/13 12:23:48;;;;;;;2.45;1.60;;;27.80;99.90;;;;;;5075748;28;20187;-72
2022/07/13 12:26:14;;;;;;;1.25;1.25;;;27.60;99.90;;;;;;5075766;28;20172;-71
2022/07/13 12:28:43;;;;;;;1.98;1.80;;;27.50;99.90;;;;;;5074316;28;20168;-76
2022/07/13 12:31:09;;;;;;;2.35;1.70;;;27.50;99.90;;;;;;5075668;28;20307;-74
2022/07/13 12:33:43;;;;;;;3.20;1.95;;;27.60;99.90;;;;;;5075719;28;20660;-73
2022/07/13 12:36:09;;;;;;;4.88;1.83;;;27.80;99.90;;;;;;5075527;28;20212;-73
2022/07/13 12:38:35;;;;;;;1.45;1.30;;;27.80;99.90;;;;;;5074305;28;20530;-73
2022/07/13 12:41:01;;;;;;;1.80;1.70;;;27.80;99.90;;;;;;5075489;28;20168;-73
2022/07/13 12:43:31;;;;;;;3.97;1.40;;;27.90;99.90;;;;;;5075493;28;20575;-74
2022/07/13 12:46:01;;;;;;;3.30;1.60;;;27.90;99.90;;;;;;5075334;28;20172;-74
2022/07/13 12:48:32;;;;;;;2.33;2.22;;;28.00;99.90;;;;;;5075443;28;20176;-71
2022/07/13 12:51:11;;;;;;;1.65;1.55;;;28.10;99.90;;;;;;5075280;28;20175;-73
2022/07/13 12:53:56;;;;;;;3.05;1.58;;;28.10;99.90;;;;;;5075044;28;20184;-73
2022/07/13 12:56:50;;;;;;;4.93;1.63;;;28.10;99.90;;;;;;5075261;28;20172;-73
2022/07/13 12:59:19;;;;;;;4.45;2.30;;;28.10;99.90;;;;;;5075660;28;20234;-74
2022/07/13 13:01:45;;;;;;;6.32;1.77;;;28.30;99.90;;;;;;5075132;28;20164;-73
2022/07/13 13:04:12;;;;;;;2.20;1.60;;;28.50;99.90;;;;;;5075027;28;20648;-72
2022/07/13 13:06:40;;;;;;;1.70;1.58;;;28.60;99.90;;;;;;5075012;28;20587;-71
2022/07/13 13:09:11;;;;;;;6.18;2.33;;;28.40;99.90;;;;;;5074974;28;20180;-73
2022/07/13 13:11:40;;;;;;;2.00;1.70;;;28.40;99.90;;;;;;5074762;28;20217;-73
2022/07/13 13:14:05;;;;;;;1.58;1.48;;;28.50;99.90;;;;;;5074838;28;20182;-74
2022/07/13 13:16:32;;;;;;;2.80;1.70;;;28.80;99.90;;;;;;5074807;28;20164;-75
2022/07/13 13:18:58;;;;;;;5.00;2.08;;;28.90;99.90;;;;;;5074803;28;20164;-74
2022/07/13 13:21:24;;;;;;;5.05;1.77;;;28.90;99.90;;;;;;5074683;28;20164;-75
2022/07/13 13:23:49;;;;;;;3.28;1.92;;;29.00;99.90;;;;;;5074637;28;20195;-75
2022/07/13 13:26:15;;;;;;;3.60;1.48;;;29.00;99.90;;;;;;5074474;28;20164;-74
2022/07/13 13:31:25;;;;;;;2.22;1.75;;;29.20;99.90;;;;;;5074188;28;20225;-71
2022/07/13 13:33:51;;;;;;;2.30;1.70;;;29.00;99.90;;;;;;5074370;28;20171;-70
2022/07/13 13:36:16;;;;;;;4.70;1.60;;;28.70;99.90;;;;;;5074204;28;20246;-71
2022/07/13 13:38:42;;;;;;;3.90;1.70;;;28.50;99.90;;;;;;5074227;28;20171;-70
2022/07/13 13:41:07;;;;;;;2.47;1.92;;;28.40;99.90;;;;;;5074324;28;20170;-71
2022/07/13 13:43:33;;;;;;;6.60;2.10;;;28.30;99.90;;;;;;5074289;28;20213;-70
2022/07/13 13:45:59;;;;;;;5.63;1.70;;;28.30;99.90;;;;;;5074196;28;20195;-74
2022/07/13 13:48:25;;;;;;;2.55;1.70;;;28.50;99.90;;;;;;5074176;28;20645;-74
2022/07/13 13:50:51;;;;;;;4.85;2.03;;;29.00;99.90;;;;;;5074123;28;20168;-74
2022/07/13 13:53:17;;;;;;;1.67;1.58;;;29.70;99.90;;;;;;5074058;28;20176;-73
2022/07/13 13:55:43;;;;;;;3.40;2.00;;;29.90;99.90;;;;;;5073817;28;20215;-73
2022/07/13 13:58:11;;;;;;;1.95;1.80;;;29.80;99.90;;;;;;5074000;28;20176;-73
2022/07/13 14:00:37;;;;;;;6.40;1.90;;;29.80;99.90;;;;;;5074021;28;20164;-73
2022/07/13 14:03:03;;;;;;;2.47;1.63;;;29.60;99.90;;;;;;5072639;28;20750;-73
2022/07/13 14:05:29;;;;;;;3.33;1.73;;;29.50;99.90;;;;;;5073358;28;20223;-72
2022/07/13 14:07:56;;;;;;;2.58;1.70;;;29.60;99.90;;;;;;5072531;28;20176;-73
2022/07/13 14:10:22;;;;;;;2.47;2.28;;;29.80;99.90;;;;;;5073817;28;20174;-72
2022/07/13 14:12:48;;;;;;;2.40;1.70;;;29.90;99.90;;;;;;5073720;28;20652;-72
2022/07/13 14:15:15;;;;;;;3.58;2.10;;;30.10;99.90;;;;;;5073599;28;20199;-73
2022/07/13 14:17:40;;;;;;;2.92;2.05;;;30.40;99.90;;;;;;5073551;28;20164;-72
2022/07/13 14:20:07;;;;;;;2.20;2.10;;;30.50;99.90;;;;;;5072393;28;20526;-71
2022/07/13 14:22:33;;;;;;;3.65;2.03;;;30.00;99.90;;;;;;5072260;28;20168;-71
2022/07/13 14:24:59;;;;;;;9.90;2.20;;;29.60;99.90;;;;;;5073616;28;20168;-71
2022/07/13 14:27:27;;;;;;;2.55;2.10;;;29.10;99.90;;;;;;5073767;28;20515;-72
2022/07/13 14:29:53;;;;;;;6.07;2.75;;;29.00;99.90;;;;;;5073516;28;20246;-72
2022/07/13 14:32:22;;;;;;;2.90;2.30;;;29.00;99.90;;;;;;5073545;28;20298;-72
2022/07/13 14:34:48;;;;;;;2.70;2.47;;;29.10;99.90;;;;;;5073359;28;20188;-72
2022/07/13 14:37:16;;;;;;;2.60;2.50;;;29.10;99.90;;;;;;5073446;28;20172;-72
2022/07/13 14:39:42;;;;;;;8.05;2.55;;;28.70;99.90;;;;;;5073341;28;20155;-72
2022/07/13 14:42:08;;;;;;;5.95;2.70;;;28.70;99.90;;;;;;5073401;28;20205;-71
2022/07/13 14:44:33;;;;;;;3.25;2.20;;;28.70;99.90;;;;;;5073454;28;20544;-71
2022/07/13 14:46:59;;;;;;;4.82;2.58;;;29.00;99.90;;;;;;5073258;28;20561;-81
2022/07/13 14:49:25;;;;;;;3.88;2.75;;;29.30;99.90;;;;;;5073228;28;20164;-78
2022/07/13 14:51:51;;;;;;;3.03;2.35;;;29.50;99.90;;;;;;5073285;28;20163;-76
2022/07/13 14:54:17;;;;;;;3.20;2.50;;;29.10;99.90;;;;;;5071671;28;20277;-75
2022/07/13 14:56:42;;;;;;;5.13;3.58;;;28.80;99.90;;;;;;5073191;28;20217;-76
2022/07/13 14:59:08;;;;;;;4.43;2.60;;;28.40;99.90;;;;;;5073173;28;20168;-75
2022/07/13 15:01:33;;;;;;;5.90;2.95;;;28.40;99.90;;;;;;5073182;28;20171;-76
2022/07/13 15:04:06;;;;;;;2.60;2.40;;;28.40;99.90;;;;;;5071690;28;20183;-75
2022/07/13 15:06:32;;;;;;;4.57;2.72;;;28.40;99.90;;;;;;5071943;28;20171;-75
2022/07/13 15:08:57;;;;;;;6.10;3.72;;;28.20;99.90;;;;;;5073135;28;20164;-75
2022/07/13 15:11:23;;;;;;;3.63;2.17;;;28.10;99.90;;;;;;5073105;28;20172;-74
2022/07/13 15:13:48;;;;;;;2.90;1.98;;;28.10;99.90;;;;;;5073071;28;20168;-74
2022/07/13 15:16:14;;;;;;;3.67;2.47;;;27.90;99.90;;;;;;5074198;28;20195;-74
2022/07/13 15:18:39;;;;;;;3.30;2.03;;;27.90;99.90;;;;;;5077030;28;20168;-74
2022/07/13 15:21:05;;;;;;;5.93;2.40;;;27.90;99.90;;;;;;5077095;28;20489;-74
2022/07/13 15:23:31;;;;;;;3.60;2.38;;;28.00;99.90;;;;;;5075723;28;20171;-74
2022/07/13 15:25:56;;;;;;;2.85;2.00;;;28.10;99.90;;;;;;5076944;28;20184;-74
2022/07/13 15:28:23;;;;;;;7.93;2.45;;;28.20;99.90;;;;;;5076737;28;20171;-75
2022/07/13 15:30:48;;;;;;;5.07;2.55;;;27.90;99.90;;;;;;5077232;28;20168;-75
2022/07/13 15:33:14;;;;;;;3.42;3.22;;;27.70;99.90;;;;;;5075493;28;20519;-75
2022/07/13 15:35:40;;;;;;;3.63;2.58;;;27.70;99.90;;;;;;5076626;28;20200;-75
2022/07/13 15:38:05;;;;;;;3.92;2.88;;;27.50;99.90;;;;;;5076678;28;20174;-74
2022/07/13 15:43:15;;;;;;;3.47;2.30;;;27.40;99.90;;;;;;5076648;28;20167;-75
2022/07/13 15:45:40;;;;;;;2.70;2.42;;;27.10;99.90;;;;;;5076425;28;20163;-74
2022/07/13 15:48:06;;;;;;;2.30;2.10;;;27.00;99.90;;;;;;5076417;28;20183;-77
2022/07/13 15:50:32;;;;;;;3.90;3.00;;;26.90;99.90;;;;;;5076443;28;20246;-77
2022/07/13 15:52:58;;;;;;;2.92;2.72;;;27.10;99.90;;;;;;5076423;28;20176;-77
2022/07/13 15:55:24;;;;;;;3.42;3.13;;;27.20;99.90;;;;;;5076087;28;20216;-77
2022/07/13 15:57:49;;;;;;;5.55;3.22;;;27.30;99.90;;;;;;5076289;28;20249;-77
2022/07/13 16:00:15;;;;;;;5.00;3.70;;;27.20;99.90;;;;;;5076151;28;20175;-77
2022/07/13 16:02:40;;;;;;;2.40;2.30;;;27.10;99.90;;;;;;5076156;28;20164;-77
2022/07/13 16:05:07;;;;;;;2.28;2.08;;;27.20;99.90;;;;;;5076003;28;20286;-77
2022/07/13 16:07:32;;;;;;;4.45;3.80;;;26.90;99.90;;;;;;5076129;28;20199;-77
2022/07/13 16:10:02;;;;;;;4.45;2.75;;;26.80;99.90;;;;;;5074765;28;20175;-78
2022/07/13 16:12:29;;;;;;;3.35;2.50;;;26.50;99.90;;;;;;5076092;28;20192;-72
2022/07/13 16:14:54;;;;;;;6.88;5.60;;;26.30;99.90;;;;;;5075829;28;20227;-71
2022/07/13 16:17:20;;;;;;;6.57;5.97;;;26.20;99.90;;;;;;5075957;28;20168;-72
2022/07/13 16:19:45;;;;;;;3.58;3.38;;;26.20;99.90;;;;;;5075930;28;20170;-72
2022/07/13 16:22:11;;;;;;;4.85;3.55;;;26.20;99.90;;;;;;5074598;28;20229;-72
2022/07/13 16:24:36;;;;;;;10.20;3.90;;;26.10;99.90;;;;;;5075802;28;20655;-71
2022/07/13 16:27:02;;;;;;;4.07;3.20;;;25.90;99.90;;;;;;5075304;28;20172;-71
2022/07/13 16:29:28;;;;;;;6.22;2.63;;;25.80;99.90;;;;;;5075608;28;20247;-71
2022/07/13 16:31:54;;;;;;;6.57;3.33;;;25.70;99.90;;;;;;5075738;28;20164;-74
2022/07/13 16:34:19;;;;;;;3.08;2.88;;;25.60;99.90;;;;;;5075622;28;20596;-74
2022/07/13 16:36:45;;;;;;;4.50;4.20;;;25.40;99.90;;;;;;5075650;28;20193;-74
2022/07/13 16:39:11;;;;;;;3.45;3.22;;;25.30;99.90;;;;;;5075619;28;20636;-74
2022/07/13 16:41:36;;;;;;;2.60;2.40;;;25.10;99.90;;;;;;5075319;28;20160;-74
2022/07/13 16:44:02;;;;;;;2.63;2.42;;;24.90;99.90;;;;;;5075084;28;20203;-76
2022/07/13 16:46:34;;;;;;;3.53;2.17;;;24.80;99.90;;;;;;5075312;28;20163;-75
2022/07/13 16:49:01;;;;;;;2.97;2.78;;;24.70;99.90;;;;;;5075430;28;20160;-74
2022/07/13 16:51:27;;;;;;;2.35;2.20;;;24.70;99.90;;;;;;5074125;28;20176;-75
2022/07/13 16:53:52;;;;;;;3.22;2.05;;;24.70;99.90;;;;;;5075091;28;20168;-75
2022/07/13 16:56:18;;;;;;;3.70;2.17;;;24.70;99.90;;;;;;5075154;28;20283;-72
2022/07/13 16:58:43;;;;;;;2.90;1.90;;;24.60;99.90;;;;;;5074694;28;20171;-72
2022/07/13 17:01:09;;;;;;;3.53;2.80;;;24.50;99.90;;;;;;5074667;28;20226;-72
2022/07/13 17:03:37;;;;;;;4.40;2.17;;;24.40;99.90;;;;;;5075086;28;20186;-72
2022/07/13 17:06:03;;;;;;;5.40;1.98;;;24.30;99.90;;;;;;5073750;28;20221;-72
2022/07/13 17:08:28;;;;;;;9.27;3.40;;;24.30;99.90;;;;;;5074943;28;20167;-72
2022/07/13 17:10:54;;;;;;;4.68;2.28;;;24.30;99.90;;;;;;5074969;28;20531;-72
2022/07/13 17:13:19;;;;;;;7.22;2.00;;;24.20;99.90;;;;;;5074897;28;20252;-72
2022/07/13 17:15:45;;;;;;;2.55;2.10;;;24.20;99.90;;;;;;5073549;28;20208;-72
2022/07/13 17:18:11;;;;;;;6.47;4.22;;;24.10;99.90;;;;;;5074821;28;20194;-72
2022/07/13 17:20:36;;;;;;;2.28;2.13;;;23.90;99.90;;;;;;5074769;28;20168;-72
2022/07/13 17:23:02;;;;;;;4.22;2.30;;;23.70;99.90;;;;;;5074752;28;20168;-72
2022/07/13 17:25:29;;;;;;;3.75;1.67;;;23.50;99.90;;;;;;5074456;28;20649;-73
2022/07/13 17:27:54;;;;;;;2.00;1.90;;;23.20;99.90;;;;;;5074352;28;20167;-72
2022/07/13 17:30:20;;;;;;;3.00;1.85;;;23.00;99.90;;;;;;5074369;28;20168;-72
2022/07/13 17:32:45;;;;;;;4.70;1.80;;;23.00;99.90;;;;;;5074390;28;20645;-72
2022/07/13 17:35:12;;;;;;;2.58;1.80;;;22.90;99.90;;;;;;5074272;28;20234;-72
2022/07/13 17:37:37;;;;;;;3.47;1.90;;;22.90;99.90;;;;;;5074333;28;20618;-73
2022/07/13 17:40:04;;;;;;;1.63;1.52;;;22.90;99.90;;;;;;5072293;28;20263;-72
2022/07/13 17:42:29;;;;;;;4.90;2.17;;;22.90;99.90;;;;;;5073001;28;20168;-73
2022/07/13 17:44:55;;;;;;;2.10;1.48;;;22.80;99.90;;;;;;5074051;28;20194;-73
2022/07/13 18:04:58;;;;;;;1.20;1.15;;;22.80;99.90;;;;;;5131789;27;20657;-71
2022/07/13 18:07:25;;;;;;;2.78;1.52;;;22.90;99.90;;;;;;5131701;28;20170;-71
2022/07/13 18:09:50;;;;;;;1.40;1.35;;;23.10;99.90;;;;;;5131742;28;20191;-71
2022/07/13 18:12:16;;;;;;;1.40;1.30;;;23.50;99.90;;;;;;5131713;28;20165;-71
2022/07/13 18:14:42;;;;;;;1.60;1.50;;;24.30;99.90;;;;;;5131671;28;20161;-72
2022/07/13 18:17:07;;;;;;;1.52;1.50;;;25.00;99.90;;;;;;5131709;28;20178;-72
2022/07/13 18:19:33;;;;;;;1.92;1.60;;;25.20;99.90;;;;;;5131550;28;20207;-72
2022/07/13 18:21:58;;;;;;;3.17;1.70;;;25.40;99.90;;;;;;5131399;28;20173;-71
2022/07/13 18:24:24;;;;;;;4.43;1.85;;;25.60;99.90;;;;;;5131378;28;20201;-72
2022/07/13 18:26:50;;;;;;;1.52;1.52;;;25.70;99.90;;;;;;5131412;28;20170;-72
2022/07/13 18:29:15;;;;;;;3.45;1.33;;;25.80;99.90;;;;;;5131318;28;20169;-72
2022/07/13 18:31:41;;;;;;;2.78;1.73;;;26.10;99.90;;;;;;5131313;28;20177;-72
2022/07/13 18:34:08;;;;;;;1.60;1.50;;;26.10;99.90;;;;;;5131237;28;20174;-72
2022/07/13 18:36:34;;;;;;;2.67;1.60;;;25.90;99.90;;;;;;5131162;28;20507;-72
2022/07/13 18:38:59;;;;;;;1.50;1.50;;;25.60;99.90;;;;;;5112863;28;20219;-72
2022/07/13 18:41:25;;;;;;;1.80;1.70;;;25.20;99.90;;;;;;5131108;28;20162;-72
2022/07/13 18:43:51;;;;;;;2.28;2.17;;;25.00;99.90;;;;;;5130950;28;20251;-72
2022/07/13 18:46:19;;;;;;;3.40;1.77;;;24.80;99.90;;;;;;5131014;28;20162;-72
2022/07/13 18:48:46;;;;;;;3.28;1.60;;;24.60;99.90;;;;;;5130966;28;20166;-72
2022/07/13 18:51:13;;;;;;;2.50;1.60;;;24.40;99.90;;;;;;5130763;28;20181;-72
2022/07/13 18:53:38;;;;;;;1.75;1.65;;;24.30;99.90;;;;;;5130969;28;20166;-72
2022/07/13 18:56:04;;;;;;;2.08;1.45;;;24.50;99.90;;;;;;5130852;28;20219;-72
2022/07/13 18:58:30;;;;;;;2.25;1.60;;;24.80;99.90;;;;;;5130809;28;20234;-72
2022/07/13 19:00:55;;;;;;;2.47;2.28;;;25.10;99.90;;;;;;5130748;28;20178;-72
2022/07/13 19:03:21;;;;;;;2.10;2.00;;;25.10;99.90;;;;;;5130466;28;20221;-72
2022/07/13 19:05:46;;;;;;;2.65;1.67;;;24.90;99.90;;;;;;5129356;28;20174;-72
2022/07/13 19:08:12;;;;;;;1.70;1.65;;;24.90;99.90;;;;;;5130611;28;20633;-72
